createdAt,value
2018-11-14T00:00:29.714Z,101368.20
2018-11-14T00:03:32.644Z,101368.21
2018-11-14T00:06:35.635Z,101364.68
2018-11-14T00:09:38.754Z,101367.80
2018-11-14T00:12:41.615Z,101365.59
2018-11-14T00:15:44.566Z,101366.05
2018-11-14T00:18:47.513Z,101363.83
2018-11-14T00:21:50.492Z,101362.06
2018-11-14T00:24:53.666Z,101354.11
2018-11-14T00:27:56.497Z,101354.12
2018-11-14T00:30:59.427Z,101350.12
2018-11-14T00:34:02.484Z,101349.72
2018-11-14T00:37:06.072Z,101341.34
2018-11-14T00:40:11.289Z,101340.89
2018-11-14T00:43:14.276Z,101338.70
2018-11-14T00:46:17.221Z,101340.91
2018-11-14T00:49:20.196Z,101346.64
2018-11-14T00:52:23.149Z,101347.98
2018-11-14T00:55:26.090Z,101342.23
2018-11-14T00:58:29.021Z,101335.61
2018-11-14T01:01:32.041Z,101336.06
2018-11-14T01:04:34.961Z,101337.38
2018-11-14T01:07:38.085Z,101337.80
2018-11-14T01:10:41.046Z,101353.72
2018-11-14T01:13:43.993Z,101354.59
2018-11-14T01:16:46.949Z,101354.14
2018-11-14T01:19:49.933Z,101355.91
2018-11-14T01:22:52.975Z,101361.64
2018-11-14T01:25:55.913Z,101360.33
2018-11-14T01:28:59.218Z,101365.17
2018-11-14T01:32:02.246Z,101362.53
2018-11-14T01:35:06.327Z,101360.30
2018-11-14T01:38:09.329Z,101355.45
2018-11-14T01:41:12.309Z,101351.02
2018-11-14T01:44:15.384Z,101353.23
2018-11-14T01:47:18.312Z,101356.30
2018-11-14T01:50:21.264Z,101357.65
2018-11-14T01:53:24.199Z,101346.20
2018-11-14T01:56:27.174Z,101351.45
2018-11-14T01:59:30.113Z,101343.54
2018-11-14T02:02:33.060Z,101350.14
2018-11-14T02:05:36.034Z,101351.44
2018-11-14T02:08:39.029Z,101356.25
2018-11-14T02:11:41.980Z,101357.61
2018-11-14T02:14:45.026Z,101367.31
2018-11-14T02:17:47.994Z,101365.57
2018-11-14T02:20:50.994Z,101366.45
2018-11-14T02:23:53.907Z,101369.09
2018-11-14T02:26:56.906Z,101374.80
2018-11-14T02:30:00.045Z,101374.80
2018-11-14T02:33:03.026Z,101367.77
2018-11-14T02:36:06.257Z,101360.25
2018-11-14T02:39:09.208Z,101361.56
2018-11-14T02:42:12.180Z,101350.15
2018-11-14T02:45:15.469Z,101347.93
2018-11-14T02:48:18.465Z,101347.05
2018-11-14T02:51:26.465Z,101336.91
2018-11-14T02:54:29.501Z,101335.14
2018-11-14T02:57:32.459Z,101332.06
2018-11-14T03:00:35.446Z,101326.77
2018-11-14T03:03:38.373Z,101325.00
2018-11-14T03:06:41.385Z,101332.52
2018-11-14T03:09:44.295Z,101328.55
2018-11-14T03:12:47.254Z,101328.54
2018-11-14T03:15:50.169Z,101331.63
2018-11-14T03:18:53.115Z,101326.77
2018-11-14T03:21:56.265Z,101321.03
2018-11-14T03:24:59.201Z,101319.72
2018-11-14T03:28:02.214Z,101311.77
2018-11-14T03:31:05.970Z,101307.83
2018-11-14T03:34:08.887Z,101307.39
2018-11-14T03:37:11.893Z,101306.52
2018-11-14T03:40:15.951Z,101318.37
2018-11-14T03:43:18.917Z,101320.61
2018-11-14T03:46:21.878Z,101324.55
2018-11-14T03:49:24.848Z,101323.25
2018-11-14T03:52:27.770Z,101320.16
2018-11-14T03:55:30.714Z,101316.15
2018-11-14T03:58:33.763Z,101317.91
2018-11-14T04:01:36.622Z,101313.51
2018-11-14T04:04:39.618Z,101308.68
2018-11-14T04:07:42.606Z,101309.52
2018-11-14T04:10:45.506Z,101309.08
2018-11-14T04:13:48.492Z,101304.20
2018-11-14T04:16:51.438Z,101300.73
2018-11-14T04:19:54.365Z,101298.55
2018-11-14T04:22:57.345Z,101295.91
2018-11-14T04:26:00.285Z,101291.04
2018-11-14T04:29:03.279Z,101289.30
2018-11-14T04:32:06.472Z,101284.46
2018-11-14T04:35:13.785Z,101283.97
2018-11-14T04:38:16.716Z,101278.72
2018-11-14T04:41:19.720Z,101276.06
2018-11-14T04:44:22.614Z,101270.81
2018-11-14T04:47:25.565Z,101269.48
2018-11-14T04:50:28.477Z,101274.73
2018-11-14T04:53:31.444Z,101276.97
2018-11-14T04:56:34.372Z,101281.81
2018-11-14T04:59:37.347Z,101278.30
2018-11-14T05:02:41.298Z,101275.62
2018-11-14T05:05:44.192Z,101277.35
2018-11-14T05:08:47.114Z,101282.19
2018-11-14T05:11:50.034Z,101279.14
2018-11-14T05:14:52.947Z,101277.35
2018-11-14T05:17:56.195Z,101281.75
2018-11-14T05:20:59.118Z,101273.79
2018-11-14T05:24:02.105Z,101275.53
2018-11-14T05:27:05.409Z,101278.59
2018-11-14T05:30:17.960Z,101279.50
2018-11-14T05:33:20.897Z,101281.67
2018-11-14T05:36:23.866Z,101267.19
2018-11-14T05:39:26.842Z,101262.81
2018-11-14T05:42:29.805Z,101259.70
2018-11-14T05:45:32.815Z,101261.48
2018-11-14T05:48:35.762Z,101269.89
2018-11-14T05:51:38.710Z,101265.50
2018-11-14T05:54:41.708Z,101256.70
2018-11-14T05:57:44.711Z,101261.90
2018-11-14T06:00:47.738Z,101258.90
2018-11-14T06:03:50.925Z,101255.81
2018-11-14T06:06:53.929Z,101261.55
2018-11-14T06:09:56.878Z,101262.39
2018-11-14T06:12:59.838Z,101261.09
2018-11-14T06:16:02.860Z,101268.58
2018-11-14T06:19:05.956Z,101261.52
2018-11-14T06:22:08.957Z,101259.75
2018-11-14T06:25:26.460Z,101271.21
2018-11-14T06:28:29.494Z,101269.02
2018-11-14T06:31:32.488Z,101266.79
2018-11-14T06:34:35.454Z,101261.94
2018-11-14T06:37:38.391Z,101270.30
2018-11-14T06:40:41.350Z,101263.30
2018-11-14T06:43:44.898Z,101277.37
2018-11-14T06:46:47.871Z,101277.83
2018-11-14T06:49:51.235Z,101276.04
2018-11-14T06:52:55.931Z,101271.66
2018-11-14T06:55:59.116Z,101272.95
2018-11-14T06:59:02.161Z,101281.77
2018-11-14T07:02:05.368Z,101278.69
2018-11-14T07:05:11.394Z,101276.50
2018-11-14T07:08:14.430Z,101280.03
2018-11-14T07:11:17.317Z,101281.34
2018-11-14T07:14:20.277Z,101286.64
2018-11-14T07:17:23.218Z,101283.06
2018-11-14T07:20:27.540Z,101295.41
2018-11-14T07:23:30.483Z,101298.91
2018-11-14T07:26:33.358Z,101298.02
2018-11-14T07:29:36.273Z,101306.43
2018-11-14T07:32:40.426Z,101308.59
2018-11-14T07:35:43.364Z,101318.58
2018-11-14T07:38:48.282Z,101334.95
2018-11-14T07:41:51.228Z,101344.59
2018-11-14T07:44:54.137Z,101346.80
2018-11-14T07:47:57.188Z,101348.28
2018-11-14T07:51:00.136Z,101350.75
2018-11-14T07:54:03.209Z,101346.75
2018-11-14T07:57:06.215Z,101350.33
2018-11-14T08:00:16.292Z,101349.41
2018-11-14T08:03:19.292Z,101358.80
2018-11-14T08:06:22.258Z,101367.81
2018-11-14T08:09:25.249Z,101360.92
2018-11-14T08:12:28.178Z,101355.26
2018-11-14T08:15:31.133Z,101360.59
2018-11-14T08:18:34.231Z,101356.20
2018-11-14T08:21:37.182Z,101361.50
2018-11-14T08:24:40.838Z,101354.73
2018-11-14T08:27:44.012Z,101358.38
2018-11-14T08:30:47.427Z,101363.47
2018-11-14T08:33:50.960Z,101374.05
2018-11-14T08:36:53.957Z,101358.41
2018-11-14T08:39:56.964Z,101360.96
2018-11-14T08:43:00.012Z,101365.42
2018-11-14T08:46:03.017Z,101357.80
2018-11-14T08:49:06.062Z,101360.70
2018-11-14T08:52:09.011Z,101360.05
2018-11-14T08:55:12.898Z,101350.34
2018-11-14T08:58:15.868Z,101349.68
2018-11-14T09:01:18.826Z,101351.95
2018-11-14T09:04:21.777Z,101351.86
2018-11-14T09:07:24.789Z,101349.09
2018-11-14T09:10:27.699Z,101349.23
2018-11-14T09:13:30.622Z,101350.90
2018-11-14T09:16:33.590Z,101355.38
2018-11-14T09:19:36.529Z,101351.94
2018-11-14T09:22:39.497Z,101355.47
2018-11-14T09:25:42.434Z,101357.94
2018-11-14T09:28:45.373Z,101350.76
2018-11-14T09:31:48.283Z,101364.09
2018-11-14T09:34:51.194Z,101366.54
2018-11-14T09:37:55.269Z,101341.16
2018-11-14T09:40:58.264Z,101347.09
2018-11-14T09:44:01.206Z,101333.69
2018-11-14T09:47:04.271Z,101325.33
2018-11-14T09:50:10.606Z,101322.21
2018-11-14T09:53:13.597Z,101330.92
2018-11-14T09:56:16.537Z,101340.56
2018-11-14T09:59:19.491Z,101348.80
2018-11-14T10:02:22.417Z,101343.57
2018-11-14T10:05:25.503Z,101338.63
2018-11-14T10:08:28.440Z,101324.03
2018-11-14T10:11:31.389Z,101327.17
2018-11-14T10:14:34.353Z,101314.63
2018-11-14T10:17:37.307Z,101311.52
2018-11-14T10:20:40.271Z,101309.92
2018-11-14T10:23:43.304Z,101303.39
2018-11-14T10:26:46.198Z,101301.14
2018-11-14T10:29:49.152Z,101304.86
2018-11-14T10:32:52.617Z,101303.58
2018-11-14T10:35:55.545Z,101316.40
2018-11-14T10:38:58.521Z,101311.05
2018-11-14T10:42:01.478Z,101308.45
2018-11-14T10:45:05.441Z,101307.02
2018-11-14T10:48:08.370Z,101289.34
2018-11-14T10:51:11.417Z,101297.20
2018-11-14T10:54:14.266Z,101303.63
2018-11-14T10:57:17.217Z,101296.37
2018-11-14T11:00:31.254Z,101296.31
2018-11-14T11:03:36.287Z,101289.48
2018-11-14T11:06:44.833Z,101287.63
2018-11-14T11:09:53.565Z,101286.12
2018-11-14T11:13:02.121Z,101291.30
2018-11-14T11:16:10.898Z,101293.78
2018-11-14T11:19:14.729Z,101302.08
2018-11-14T11:22:17.613Z,101296.67
2018-11-14T11:25:20.572Z,101285.22
2018-11-14T11:28:23.577Z,101281.52
2018-11-14T11:31:26.544Z,101285.80
2018-11-14T11:34:29.469Z,101291.83
2018-11-14T11:37:32.498Z,101283.48
2018-11-14T11:40:35.492Z,101277.23
2018-11-14T11:43:38.402Z,101271.66
2018-11-14T11:46:42.377Z,101266.02
2018-11-14T11:49:45.343Z,101268.50
2018-11-14T11:52:48.311Z,101269.70
2018-11-14T11:55:51.248Z,101271.02
2018-11-14T11:58:54.292Z,101270.14
2018-11-14T12:01:57.298Z,101272.73
2018-11-14T12:05:00.293Z,101260.85
2018-11-14T12:08:03.304Z,101265.39
2018-11-14T12:11:06.533Z,101266.35
2018-11-14T12:14:09.477Z,101253.81
2018-11-14T12:17:12.869Z,101247.63
2018-11-14T12:20:15.885Z,101251.88
2018-11-14T12:23:18.904Z,101258.05
2018-11-14T12:26:21.818Z,101257.22
2018-11-14T12:29:24.694Z,101254.26
2018-11-14T12:32:27.594Z,101246.11
2018-11-14T12:35:30.635Z,101241.55
2018-11-14T12:38:33.590Z,101239.34
2018-11-14T12:41:36.525Z,101241.75
2018-11-14T12:44:39.478Z,101228.03
2018-11-14T12:47:42.394Z,101224.80
2018-11-14T12:50:45.393Z,101223.87
2018-11-14T12:53:48.358Z,101222.14
2018-11-14T12:56:51.282Z,101220.83
2018-11-14T12:59:54.361Z,101223.86
2018-11-14T13:02:57.249Z,101206.59
2018-11-14T13:06:00.193Z,101231.05
2018-11-14T13:09:04.467Z,101233.52
2018-11-14T13:12:07.373Z,101225.00
2018-11-14T13:15:11.564Z,101227.65
2018-11-14T13:18:14.518Z,101212.59
2018-11-14T13:21:17.509Z,101213.48
2018-11-14T13:24:20.457Z,101215.77
2018-11-14T13:27:23.468Z,101221.59
2018-11-14T13:30:26.503Z,101217.98
2018-11-14T13:33:29.927Z,101221.97
2018-11-14T13:36:32.889Z,101213.12
2018-11-14T13:39:35.885Z,101216.34
2018-11-14T13:42:38.936Z,101212.81
2018-11-14T13:45:41.865Z,101216.91
2018-11-14T13:48:44.905Z,101219.88
2018-11-14T13:51:47.781Z,101214.08
2018-11-14T13:54:50.690Z,101213.23
2018-11-14T13:57:53.645Z,101211.55
2018-11-14T14:00:56.557Z,101208.11
2018-11-14T14:03:59.473Z,101209.00
2018-11-14T14:07:02.476Z,101209.73
2018-11-14T14:10:07.059Z,101221.45
2018-11-14T14:13:09.966Z,101232.72
2018-11-14T14:16:12.934Z,101222.95
2018-11-14T14:19:16.209Z,101220.86
2018-11-14T14:22:19.193Z,101214.55
2018-11-14T14:25:22.774Z,101206.27
2018-11-14T14:28:25.825Z,101211.05
2018-11-14T14:31:29.149Z,101214.75
2018-11-14T14:34:33.067Z,101213.19
2018-11-14T14:37:37.039Z,101213.75
2018-11-14T14:40:41.257Z,101206.86
2018-11-14T14:43:46.142Z,101202.63
2018-11-14T14:46:49.949Z,101196.09
2018-11-14T14:49:53.786Z,101190.52
2018-11-14T14:52:56.702Z,101191.52
2018-11-14T14:56:00.704Z,101180.46
2018-11-14T14:59:05.009Z,101177.80
2018-11-14T15:02:09.855Z,101183.13
2018-11-14T15:05:14.395Z,101180.96
2018-11-14T15:08:19.377Z,101184.59
2018-11-14T15:11:23.488Z,101172.61
2018-11-14T15:14:27.459Z,101176.31
2018-11-14T15:17:31.788Z,101171.95
2018-11-14T15:20:35.207Z,101169.82
2018-11-14T15:23:39.129Z,101167.28
2018-11-14T15:26:43.127Z,101162.47
2018-11-14T15:29:47.460Z,101166.09
2018-11-14T15:32:51.342Z,101162.21
2018-11-14T15:35:55.359Z,101167.52
2018-11-14T15:38:59.163Z,101160.47
2018-11-14T15:42:03.139Z,101153.52
2018-11-14T15:45:13.135Z,101149.16
2018-11-14T15:48:17.292Z,101143.00
2018-11-14T15:51:21.355Z,101146.04
2018-11-14T15:54:25.343Z,101142.99
2018-11-14T15:57:29.527Z,101145.20
2018-11-14T16:00:33.835Z,101143.00
2018-11-14T16:03:37.803Z,101142.13
2018-11-14T16:06:42.098Z,101126.71
2018-11-14T16:09:46.998Z,101126.31
2018-11-14T16:12:50.989Z,101124.14
2018-11-14T16:15:55.550Z,101114.83
2018-11-14T16:19:00.464Z,101115.65
2018-11-14T16:22:04.640Z,101111.22
2018-11-14T16:25:11.643Z,101109.14
2018-11-14T16:28:15.465Z,101113.56
2018-11-14T16:31:19.492Z,101117.50
2018-11-14T16:34:23.473Z,101122.77
2018-11-14T16:37:27.868Z,101120.99
2018-11-14T16:40:33.085Z,101128.06
2018-11-14T16:43:37.028Z,101126.36
2018-11-14T16:46:40.951Z,101116.64
2018-11-14T16:49:45.056Z,101123.70
2018-11-14T16:52:49.353Z,101118.45
2018-11-14T16:55:53.241Z,101116.20
2018-11-14T16:58:57.911Z,101126.78
2018-11-14T17:02:02.426Z,101114.85
2018-11-14T17:05:07.864Z,101112.24
2018-11-14T17:08:12.298Z,101108.75
2018-11-14T17:11:16.942Z,101106.58
2018-11-14T17:14:24.100Z,101111.42
2018-11-14T17:17:28.018Z,101106.12
2018-11-14T17:20:33.010Z,101107.91
2018-11-14T17:23:38.002Z,101109.62
2018-11-14T17:26:42.184Z,101099.52
2018-11-14T17:29:46.936Z,101107.89
2018-11-14T17:32:51.337Z,101106.11
2018-11-14T17:35:56.268Z,101104.39
2018-11-14T17:39:00.543Z,101114.48
2018-11-14T17:42:05.006Z,101112.30
2018-11-14T17:45:16.501Z,101111.86
2018-11-14T17:48:21.511Z,101113.62
2018-11-14T17:51:25.608Z,101106.98
2018-11-14T17:54:29.505Z,101109.19
2018-11-14T17:57:34.152Z,101108.77
2018-11-14T18:00:38.140Z,101113.15
2018-11-14T18:03:42.406Z,101118.87
2018-11-14T18:06:47.262Z,101114.80
2018-11-14T18:09:51.930Z,101128.14
2018-11-14T18:12:57.484Z,101127.56
2018-11-14T18:16:01.570Z,101121.44
2018-11-14T18:19:05.972Z,101118.87
2018-11-14T18:22:10.460Z,101107.02
2018-11-14T18:25:15.150Z,101109.19
2018-11-14T18:28:19.435Z,101116.67
2018-11-14T18:31:23.450Z,101107.89
2018-11-14T18:34:27.412Z,101106.11
2018-11-14T18:37:31.389Z,101102.18
2018-11-14T18:40:35.646Z,101094.23
2018-11-14T18:43:40.264Z,101096.89
2018-11-14T18:46:44.348Z,101088.08
2018-11-14T18:49:48.623Z,101084.56
2018-11-14T18:52:55.660Z,101083.70
2018-11-14T18:55:59.483Z,101085.88
2018-11-14T18:59:04.254Z,101088.06
2018-11-14T19:02:08.385Z,101088.06
2018-11-14T19:05:13.222Z,101089.39
2018-11-14T19:08:17.751Z,101090.28
2018-11-14T19:11:22.050Z,101094.67
2018-11-14T19:14:26.849Z,101097.73
2018-11-14T19:17:30.806Z,101090.70
2018-11-14T19:20:35.771Z,101085.88
2018-11-14T19:23:41.592Z,101096.90
2018-11-14T19:26:45.546Z,101096.88
2018-11-14T19:29:49.468Z,101099.09
2018-11-14T19:32:54.701Z,101093.80
2018-11-14T19:35:59.272Z,101092.06
2018-11-14T19:39:04.954Z,101095.99
2018-11-14T19:42:09.823Z,101090.75
2018-11-14T19:45:18.551Z,101090.30
2018-11-14T19:48:22.720Z,101089.86
2018-11-14T19:51:26.787Z,101084.58
2018-11-14T19:54:32.791Z,101085.00
2018-11-14T19:57:37.264Z,101081.49
2018-11-14T20:00:41.912Z,101077.05
2018-11-14T20:03:49.483Z,101082.81
2018-11-14T20:06:53.678Z,101078.41
2018-11-14T20:09:57.777Z,101076.63
2018-11-14T20:13:02.465Z,101080.16
2018-11-14T20:16:06.532Z,101084.98
2018-11-14T20:19:13.425Z,101090.27
2018-11-14T20:22:17.531Z,101079.30
2018-11-14T20:25:21.538Z,101082.78
2018-11-14T20:28:25.818Z,101080.59
2018-11-14T20:31:29.938Z,101085.39
2018-11-14T20:34:33.961Z,101087.52
2018-11-14T20:37:38.137Z,101089.41
2018-11-14T20:40:44.244Z,101082.80
2018-11-14T20:43:49.320Z,101078.39
2018-11-14T20:46:54.237Z,101087.16
2018-11-14T20:50:00.137Z,101077.02
2018-11-14T20:53:05.231Z,101076.16
2018-11-14T20:56:13.235Z,101073.45
2018-11-14T20:59:17.205Z,101072.98
2018-11-14T21:02:21.132Z,101073.91
2018-11-14T21:05:26.671Z,101067.70
2018-11-14T21:08:31.611Z,101069.89
2018-11-14T21:11:35.554Z,101070.39
2018-11-14T21:14:39.422Z,101069.84
2018-11-14T21:17:43.404Z,101066.82
2018-11-14T21:20:47.248Z,101068.14
2018-11-14T21:23:51.059Z,101069.02
2018-11-14T21:26:54.944Z,101061.48
2018-11-14T21:29:59.114Z,101064.47
2018-11-14T21:33:03.117Z,101059.73
2018-11-14T21:36:07.692Z,101061.92
2018-11-14T21:39:13.402Z,101061.87
2018-11-14T21:42:17.306Z,101058.41
2018-11-14T21:45:22.466Z,101050.93
2018-11-14T21:48:26.464Z,101049.30
2018-11-14T21:51:30.303Z,101050.63
2018-11-14T21:54:35.096Z,101044.04
2018-11-14T21:58:42.728Z,101047.18
2018-11-14T22:01:47.443Z,101044.53
2018-11-14T22:04:53.012Z,101044.08
2018-11-14T22:07:58.144Z,101041.45
2018-11-14T22:11:02.095Z,101034.41
2018-11-14T22:14:06.546Z,101037.50
2018-11-14T22:17:10.653Z,101039.23
2018-11-14T22:20:16.219Z,101043.64
2018-11-14T22:23:19.997Z,101034.87
2018-11-14T22:26:24.272Z,101036.17
2018-11-14T22:29:28.691Z,101038.38
2018-11-14T22:32:32.469Z,101026.94
2018-11-14T22:35:36.499Z,101024.29
2018-11-14T22:38:41.042Z,101025.60
2018-11-14T22:41:44.838Z,101021.21
2018-11-14T22:44:50.403Z,101022.10
2018-11-14T22:47:54.408Z,101015.06
2018-11-14T22:50:58.293Z,101012.85
2018-11-14T22:54:02.197Z,101021.67
2018-11-14T22:57:06.708Z,101019.01
2018-11-14T23:00:20.812Z,101021.66
2018-11-14T23:03:24.788Z,101021.21
2018-11-14T23:06:29.108Z,101024.29
2018-11-14T23:09:33.091Z,101023.86
2018-11-14T23:12:36.882Z,101017.27
2018-11-14T23:15:40.767Z,101032.20
2018-11-14T23:18:44.580Z,101025.62
2018-11-14T23:21:48.410Z,101031.33
2018-11-14T23:24:52.234Z,101037.05
2018-11-14T23:27:56.490Z,101036.16
2018-11-14T23:31:00.964Z,101034.84
2018-11-14T23:34:05.090Z,101040.08
2018-11-14T23:37:08.989Z,101040.98
2018-11-14T23:40:12.965Z,101037.02
2018-11-14T23:43:17.642Z,101034.38
2018-11-14T23:46:22.443Z,101038.78
2018-11-14T23:49:26.891Z,101038.80
2018-11-14T23:52:30.744Z,101037.89
2018-11-14T23:55:34.545Z,101044.48
2018-11-14T23:58:38.413Z,101039.63
